createdAt,value
2017-08-28T00:01:02.673Z,98520.62
2017-08-28T00:03:30.130Z,98528.05
2017-08-28T00:05:57.620Z,98531.94
2017-08-28T00:08:25.073Z,98532.16
2017-08-28T00:10:52.534Z,98526.23
2017-08-28T00:13:20.009Z,98523.63
2017-08-28T00:15:47.469Z,98520.28
2017-08-28T00:18:14.937Z,98517.02
2017-08-28T00:20:42.417Z,98515.14
2017-08-28T00:23:09.868Z,98523.02
2017-08-28T00:25:37.598Z,98521.20
2017-08-28T00:28:05.054Z,98523.38
2017-08-28T00:30:32.510Z,98526.94
2017-08-28T00:32:59.998Z,98528.27
2017-08-28T00:35:27.449Z,98537.95
2017-08-28T00:37:54.909Z,98539.49
2017-08-28T00:40:22.390Z,98540.63
2017-08-28T00:42:49.849Z,98537.30
2017-08-28T00:45:17.318Z,98538.95
2017-08-28T00:47:44.792Z,98529.40
2017-08-28T00:50:12.250Z,98534.81
2017-08-28T00:52:39.724Z,98538.63
2017-08-28T00:55:07.185Z,98535.14
2017-08-28T00:57:34.656Z,98527.44
2017-08-28T01:00:02.120Z,98529.03
2017-08-28T01:02:29.581Z,98529.02
2017-08-28T01:04:57.061Z,98538.00
2017-08-28T01:07:24.529Z,98538.08
2017-08-28T01:09:51.977Z,98540.78
2017-08-28T01:12:19.436Z,98533.67
2017-08-28T01:14:46.917Z,98531.55
2017-08-28T01:17:14.377Z,98527.45
2017-08-28T01:19:41.856Z,98525.62
2017-08-28T01:22:09.313Z,98531.91
2017-08-28T01:24:36.791Z,98525.20
2017-08-28T01:27:04.236Z,98525.49
2017-08-28T01:29:31.693Z,98532.59
2017-08-28T01:31:59.320Z,98526.09
2017-08-28T01:34:26.772Z,98519.88
2017-08-28T01:36:54.230Z,98523.20
2017-08-28T01:39:21.714Z,98524.98
2017-08-28T01:41:49.161Z,98524.25
2017-08-28T01:44:16.636Z,98527.98
2017-08-28T01:46:44.092Z,98527.79
2017-08-28T01:49:11.573Z,98529.18
2017-08-28T01:51:39.025Z,98531.01
2017-08-28T01:54:06.521Z,98535.02
2017-08-28T01:56:33.976Z,98536.94
2017-08-28T01:59:01.431Z,98544.95
2017-08-28T02:01:28.904Z,98539.61
2017-08-28T02:03:56.357Z,98533.75
2017-08-28T02:06:23.842Z,98531.56
2017-08-28T02:08:51.289Z,98528.10
2017-08-28T02:11:18.751Z,98531.53
2017-08-28T02:13:46.238Z,98533.77
2017-08-28T02:16:13.694Z,98540.36
2017-08-28T02:18:41.145Z,98540.75
2017-08-28T02:21:08.621Z,98546.14
2017-08-28T02:23:36.290Z,98545.77
2017-08-28T02:26:03.753Z,98546.75
2017-08-28T02:28:31.201Z,98548.19
2017-08-28T02:30:58.674Z,98552.24
2017-08-28T02:33:26.159Z,98546.38
2017-08-28T02:35:53.612Z,98549.50
2017-08-28T02:38:21.357Z,98547.12
2017-08-28T02:40:48.805Z,98548.44
2017-08-28T02:43:16.256Z,98544.91
2017-08-28T02:45:43.735Z,98541.87
2017-08-28T02:48:11.219Z,98542.80
2017-08-28T02:50:38.690Z,98538.94
2017-08-28T02:53:06.142Z,98539.73
2017-08-28T02:55:33.629Z,98532.67
2017-08-28T02:58:01.089Z,98533.20
2017-08-28T03:00:28.569Z,98525.78
2017-08-28T03:02:56.038Z,98532.68
2017-08-28T03:05:23.522Z,98531.45
2017-08-28T03:07:50.993Z,98516.40
2017-08-28T03:10:18.449Z,98515.19
2017-08-28T03:12:45.930Z,98512.74
2017-08-28T03:15:13.413Z,98509.98
2017-08-28T03:17:40.890Z,98516.94
2017-08-28T03:20:08.361Z,98510.72
2017-08-28T03:22:35.816Z,98514.82
2017-08-28T03:25:03.290Z,98508.04
2017-08-28T03:27:30.799Z,98513.00
2017-08-28T03:29:58.275Z,98515.63
2017-08-28T03:32:25.732Z,98523.36
2017-08-28T03:34:53.206Z,98521.48
2017-08-28T03:37:20.948Z,98512.62
2017-08-28T03:39:48.406Z,98504.31
2017-08-28T03:42:15.883Z,98501.35
2017-08-28T03:44:43.357Z,98499.25
2017-08-28T03:47:10.832Z,98507.82
2017-08-28T03:49:38.318Z,98514.33
2017-08-28T03:52:05.780Z,98516.14
2017-08-28T03:54:33.238Z,98520.02
2017-08-28T03:57:00.720Z,98522.19
2017-08-28T03:59:28.201Z,98518.75
2017-08-28T04:01:55.658Z,98528.42
2017-08-28T04:04:23.129Z,98532.71
2017-08-28T04:06:50.583Z,98531.86
2017-08-28T04:09:18.065Z,98539.27
2017-08-28T04:11:45.543Z,98537.70
2017-08-28T04:14:13.001Z,98539.85
2017-08-28T04:16:40.473Z,98538.52
2017-08-28T04:19:07.928Z,98540.92
2017-08-28T04:21:35.380Z,98540.36
2017-08-28T04:24:02.860Z,98533.25
2017-08-28T04:26:30.316Z,98535.05
2017-08-28T04:28:57.812Z,98532.31
2017-08-28T04:31:25.273Z,98537.75
2017-08-28T04:33:52.725Z,98542.23
2017-08-28T04:36:20.203Z,98548.41
2017-08-28T04:38:47.669Z,98548.86
2017-08-28T04:41:15.149Z,98545.74
2017-08-28T04:43:42.597Z,98546.41
2017-08-28T04:46:10.049Z,98556.34
2017-08-28T04:48:37.523Z,98558.09
2017-08-28T04:51:04.974Z,98555.65
2017-08-28T04:53:32.428Z,98564.52
2017-08-28T04:55:59.908Z,98562.76
2017-08-28T04:58:27.386Z,98569.35
2017-08-28T05:00:54.838Z,98577.06
2017-08-28T05:03:22.324Z,98572.67
2017-08-28T05:05:49.789Z,98578.65
2017-08-28T05:08:17.265Z,98577.05
2017-08-28T05:10:44.719Z,98578.84
2017-08-28T05:13:12.203Z,98579.48
2017-08-28T05:15:39.663Z,98581.13
2017-08-28T05:18:07.137Z,98578.97
2017-08-28T05:20:34.589Z,98573.12
2017-08-28T05:23:02.060Z,98585.15
2017-08-28T05:25:29.538Z,98578.13
2017-08-28T05:27:57.001Z,98583.50
2017-08-28T05:30:24.545Z,98581.16
2017-08-28T05:32:52.009Z,98585.02
2017-08-28T05:35:19.467Z,98577.56
2017-08-28T05:37:46.970Z,98576.95
2017-08-28T05:40:14.425Z,98578.29
2017-08-28T05:42:41.882Z,98576.42
2017-08-28T05:45:09.372Z,98583.37
2017-08-28T05:47:36.857Z,98578.48
2017-08-28T05:50:04.326Z,98573.20
2017-08-28T05:52:31.809Z,98576.01
2017-08-28T05:54:59.318Z,98580.92
2017-08-28T05:57:26.766Z,98576.31
2017-08-28T05:59:54.261Z,98578.00
2017-08-28T06:02:21.718Z,98576.03
2017-08-28T06:04:49.530Z,98577.95
2017-08-28T06:07:16.987Z,98584.54
2017-08-28T06:09:44.448Z,98584.29
2017-08-28T06:12:11.926Z,98588.41
2017-08-28T06:14:39.388Z,98586.05
2017-08-28T06:17:06.883Z,98588.31
2017-08-28T06:19:34.334Z,98587.56
2017-08-28T06:22:01.810Z,98590.48
2017-08-28T06:24:29.260Z,98585.33
2017-08-28T06:26:56.992Z,98578.75
2017-08-28T06:29:24.451Z,98586.81
2017-08-28T06:31:51.903Z,98588.92
2017-08-28T06:34:19.401Z,98596.20
2017-08-28T06:36:46.861Z,98594.37
2017-08-28T06:39:14.308Z,98596.28
2017-08-28T06:41:41.787Z,98592.63
2017-08-28T06:44:09.244Z,98587.91
2017-08-28T06:46:36.721Z,98597.75
2017-08-28T06:49:04.188Z,98596.69
2017-08-28T06:51:31.648Z,98600.03
2017-08-28T06:53:59.112Z,98593.20
2017-08-28T06:56:26.561Z,98593.45
2017-08-28T06:58:54.037Z,98587.68
2017-08-28T07:01:21.594Z,98596.40
2017-08-28T07:03:49.069Z,98592.52
2017-08-28T07:06:16.540Z,98593.01
2017-08-28T07:08:43.997Z,98597.63
2017-08-28T07:11:11.449Z,98595.89
2017-08-28T07:13:38.921Z,98600.19
2017-08-28T07:16:06.382Z,98596.83
2017-08-28T07:18:33.850Z,98599.23
2017-08-28T07:21:01.335Z,98590.87
2017-08-28T07:23:28.793Z,98588.79
2017-08-28T07:25:56.268Z,98590.61
2017-08-28T07:28:23.757Z,98586.17
2017-08-28T07:30:51.220Z,98592.33
2017-08-28T07:33:18.699Z,98588.79
2017-08-28T07:35:46.172Z,98589.22
2017-08-28T07:38:13.816Z,98590.99
2017-08-28T07:40:41.273Z,98592.63
2017-08-28T07:43:08.754Z,98596.42
2017-08-28T07:45:36.206Z,98599.86
2017-08-28T07:48:03.645Z,98600.03
2017-08-28T07:50:31.117Z,98601.80
2017-08-28T07:52:58.574Z,98605.06
2017-08-28T07:55:26.045Z,98600.38
2017-08-28T07:57:53.502Z,98607.23
2017-08-28T08:00:20.985Z,98601.56
2017-08-28T08:02:48.457Z,98600.59
2017-08-28T08:05:16.301Z,98609.28
2017-08-28T08:07:43.748Z,98609.56
2017-08-28T08:10:11.193Z,98610.08
2017-08-28T08:12:38.657Z,98609.43
2017-08-28T08:15:06.137Z,98609.59
2017-08-28T08:17:33.597Z,98607.91
2017-08-28T08:20:01.070Z,98606.73
2017-08-28T08:22:28.529Z,98605.39
2017-08-28T08:24:56.010Z,98606.73
2017-08-28T08:27:23.478Z,98607.93
2017-08-28T08:29:50.962Z,98602.95
2017-08-28T08:32:18.425Z,98601.00
2017-08-28T08:34:45.893Z,98602.87
2017-08-28T08:37:13.373Z,98605.20
2017-08-28T08:39:40.825Z,98601.39
2017-08-28T08:42:08.301Z,98601.00
2017-08-28T08:44:35.757Z,98596.52
2017-08-28T08:47:03.202Z,98591.65
2017-08-28T08:49:30.673Z,98599.14
2017-08-28T08:51:58.129Z,98598.86
2017-08-28T08:54:25.602Z,98595.55
2017-08-28T08:56:53.041Z,98594.97
2017-08-28T08:59:20.514Z,98594.26
2017-08-28T09:01:47.961Z,98597.52
2017-08-28T09:04:15.414Z,98600.28
2017-08-28T09:06:42.890Z,98604.52
2017-08-28T09:09:10.352Z,98600.97
2017-08-28T09:11:37.798Z,98600.74
2017-08-28T09:14:05.269Z,98607.60
2017-08-28T09:16:32.740Z,98604.45
2017-08-28T09:19:00.213Z,98611.76
2017-08-28T09:21:27.658Z,98615.59
2017-08-28T09:23:55.120Z,98619.92
2017-08-28T09:26:22.773Z,98615.80
2017-08-28T09:28:50.224Z,98615.08
2017-08-28T09:31:17.677Z,98616.63
2017-08-28T09:33:45.156Z,98617.27
2017-08-28T09:36:12.600Z,98623.37
2017-08-28T09:38:40.056Z,98618.34
2017-08-28T09:41:07.530Z,98611.84
2017-08-28T09:43:35.009Z,98602.59
2017-08-28T09:46:02.461Z,98608.66
2017-08-28T09:48:29.940Z,98610.15
2017-08-28T09:50:57.429Z,98608.15
2017-08-28T09:53:24.909Z,98611.41
2017-08-28T09:55:52.362Z,98607.91
2017-08-28T09:58:19.808Z,98609.88
2017-08-28T10:00:47.277Z,98603.41
2017-08-28T10:03:14.755Z,98594.81
2017-08-28T10:05:42.201Z,98599.31
2017-08-28T10:08:09.678Z,98594.52
2017-08-28T10:10:37.124Z,98601.25
2017-08-28T10:13:04.592Z,98601.13
2017-08-28T10:15:32.045Z,98596.66
2017-08-28T10:17:59.497Z,98589.36
2017-08-28T10:20:27.077Z,98589.81
2017-08-28T10:22:54.521Z,98590.25
2017-08-28T10:25:21.965Z,98583.73
2017-08-28T10:27:49.429Z,98580.22
2017-08-28T10:30:16.899Z,98569.70
2017-08-28T10:32:44.397Z,98571.14
2017-08-28T10:35:11.844Z,98565.52
2017-08-28T10:37:39.321Z,98556.25
2017-08-28T10:40:06.770Z,98551.78
2017-08-28T10:42:34.248Z,98544.89
2017-08-28T10:45:02.578Z,98537.80
2017-08-28T10:47:30.033Z,98543.26
2017-08-28T10:49:57.506Z,98532.77
2017-08-28T10:52:24.967Z,98534.27
2017-08-28T10:54:52.445Z,98525.47
2017-08-28T10:57:19.901Z,98523.51
2017-08-28T10:59:47.345Z,98523.81
2017-08-28T11:02:14.817Z,98522.23
2017-08-28T11:04:42.289Z,98524.30
2017-08-28T11:07:09.798Z,98527.83
2017-08-28T11:09:37.277Z,98528.55
2017-08-28T11:12:04.741Z,98529.33
2017-08-28T11:14:32.210Z,98529.80
2017-08-28T11:16:59.685Z,98532.56
2017-08-28T11:19:27.152Z,98534.02
2017-08-28T11:21:54.761Z,98528.44
2017-08-28T11:24:22.210Z,98527.20
2017-08-28T11:26:49.662Z,98526.23
2017-08-28T11:29:17.137Z,98524.39
2017-08-28T11:31:44.584Z,98528.57
2017-08-28T11:34:12.037Z,98519.33
2017-08-28T11:36:39.511Z,98515.25
2017-08-28T11:39:06.990Z,98514.17
2017-08-28T11:41:34.436Z,98511.09
2017-08-28T11:44:02.073Z,98506.98
2017-08-28T11:46:29.526Z,98497.31
2017-08-28T11:48:56.971Z,98488.98
2017-08-28T11:51:24.445Z,98482.84
2017-08-28T11:53:51.889Z,98480.53
2017-08-28T11:56:19.333Z,98476.72
2017-08-28T11:58:46.807Z,98483.31
2017-08-28T12:01:14.596Z,98486.84
2017-08-28T12:03:42.046Z,98499.75
2017-08-28T12:06:09.497Z,98503.87
2017-08-28T12:08:36.958Z,98511.38
2017-08-28T12:11:04.412Z,98506.67
2017-08-28T12:13:31.876Z,98507.23
2017-08-28T12:15:59.340Z,98509.71
2017-08-28T12:18:26.800Z,98523.45
2017-08-28T12:20:54.284Z,98523.58
2017-08-28T12:23:21.738Z,98520.41
2017-08-28T12:25:49.200Z,98512.16
2017-08-28T12:28:16.661Z,98514.91
2017-08-28T12:30:44.109Z,98510.93
2017-08-28T12:33:11.581Z,98509.05
2017-08-28T12:35:39.025Z,98522.36
2017-08-28T12:38:06.474Z,98523.94
2017-08-28T12:40:33.943Z,98524.41
2017-08-28T12:43:01.392Z,98523.61
2017-08-28T12:45:28.862Z,98519.55
2017-08-28T12:47:56.302Z,98523.42
2017-08-28T12:50:23.755Z,98521.50
2017-08-28T12:52:51.244Z,98523.42
2017-08-28T12:55:18.696Z,98526.27
2017-08-28T12:57:46.153Z,98517.59
2017-08-28T13:00:13.626Z,98520.38
2017-08-28T13:02:41.074Z,98516.18
2017-08-28T13:05:08.521Z,98506.78
2017-08-28T13:07:35.989Z,98497.10
2017-08-28T13:10:03.458Z,98481.66
2017-08-28T13:12:30.903Z,98474.69
2017-08-28T13:14:58.378Z,98482.30
2017-08-28T13:17:25.829Z,98485.64
2017-08-28T13:19:53.276Z,98489.08
2017-08-28T13:22:20.766Z,98494.67
2017-08-28T13:24:48.217Z,98497.88
2017-08-28T13:27:15.691Z,98506.43
2017-08-28T13:29:43.140Z,98496.20
2017-08-28T13:32:10.605Z,98496.75
2017-08-28T13:34:38.095Z,98508.25
2017-08-28T13:37:05.587Z,98504.01
2017-08-28T13:39:33.040Z,98501.71
2017-08-28T13:42:00.490Z,98493.10
2017-08-28T13:44:27.965Z,98495.67
2017-08-28T13:46:55.416Z,98504.91
2017-08-28T13:49:22.869Z,98522.78
2017-08-28T13:51:50.341Z,98529.34
2017-08-28T13:54:17.813Z,98522.25
2017-08-28T13:56:45.284Z,98511.66
2017-08-28T13:59:12.734Z,98488.72
2017-08-28T14:01:40.214Z,98483.56
2017-08-28T14:04:07.665Z,98493.69
2017-08-28T14:06:35.144Z,98507.70
2017-08-28T14:09:02.626Z,98508.70
2017-08-28T14:11:30.114Z,98504.36
2017-08-28T14:13:57.567Z,98508.50
2017-08-28T14:16:25.013Z,98509.64
2017-08-28T14:18:52.492Z,98525.24
2017-08-28T14:21:19.949Z,98528.11
2017-08-28T14:23:47.433Z,98525.84
2017-08-28T14:26:14.887Z,98519.76
2017-08-28T14:28:42.364Z,98508.22
2017-08-28T14:31:09.823Z,98495.75
2017-08-28T14:33:37.306Z,98494.95
2017-08-28T14:36:04.768Z,98486.95
2017-08-28T14:38:32.218Z,98487.80
2017-08-28T14:40:59.691Z,98493.89
2017-08-28T14:43:27.141Z,98493.19
2017-08-28T14:45:54.616Z,98497.85
2017-08-28T14:48:22.094Z,98492.30
2017-08-28T14:50:49.548Z,98486.33
2017-08-28T14:53:17.006Z,98482.55
2017-08-28T14:55:44.486Z,98480.36
2017-08-28T14:58:11.940Z,98478.53
2017-08-28T15:00:39.405Z,98482.66
2017-08-28T15:03:06.855Z,98484.66
2017-08-28T15:05:34.334Z,98484.86
2017-08-28T15:08:01.785Z,98479.97
2017-08-28T15:10:29.620Z,98484.12
2017-08-28T15:12:57.082Z,98494.53
2017-08-28T15:15:24.557Z,98490.70
2017-08-28T15:17:52.047Z,98494.77
2017-08-28T15:20:19.506Z,98490.88
2017-08-28T15:22:46.998Z,98493.94
2017-08-28T15:25:14.448Z,98490.03
2017-08-28T15:27:42.154Z,98490.14
2017-08-28T15:30:09.627Z,98485.92
2017-08-28T15:32:37.308Z,98481.28
2017-08-28T15:35:05.199Z,98485.77
2017-08-28T15:37:32.654Z,98485.73
2017-08-28T15:40:00.990Z,98477.86
2017-08-28T15:42:29.934Z,98480.45
2017-08-28T15:44:57.394Z,98480.50
2017-08-28T15:47:24.850Z,98479.59
2017-08-28T15:49:52.324Z,98477.35
2017-08-28T15:52:20.366Z,98480.00
2017-08-28T15:54:47.837Z,98481.45
2017-08-28T15:57:15.313Z,98487.53
2017-08-28T15:59:43.022Z,98485.45
2017-08-28T16:02:10.461Z,98483.86
2017-08-28T16:04:38.610Z,98479.34
2017-08-28T16:07:06.080Z,98483.91
2017-08-28T16:09:33.561Z,98474.59
2017-08-28T16:12:01.005Z,98483.03
2017-08-28T16:14:29.184Z,98482.50
2017-08-28T16:16:56.788Z,98482.65
2017-08-28T16:19:24.544Z,98482.70
2017-08-28T16:21:51.992Z,98484.19
2017-08-28T16:24:20.622Z,98485.50
2017-08-28T16:26:49.250Z,98486.55
2017-08-28T16:29:16.706Z,98484.34
2017-08-28T16:31:44.155Z,98483.94
2017-08-28T16:34:12.097Z,98478.84
2017-08-28T16:36:40.603Z,98484.14
2017-08-28T16:39:08.207Z,98482.95
2017-08-28T16:41:35.801Z,98480.12
2017-08-28T16:44:03.320Z,98483.87
2017-08-28T16:46:30.781Z,98489.75
2017-08-28T16:48:59.721Z,98491.48
2017-08-28T16:51:27.282Z,98489.56
2017-08-28T16:53:54.757Z,98490.19
2017-08-28T16:56:22.231Z,98490.41
2017-08-28T16:58:49.736Z,98490.53
2017-08-28T17:01:17.180Z,98489.73
2017-08-28T17:03:44.657Z,98488.87
2017-08-28T17:06:12.107Z,98492.87
2017-08-28T17:08:39.568Z,98494.31
2017-08-28T17:11:07.054Z,98486.32
2017-08-28T17:13:34.523Z,98490.50
2017-08-28T17:16:02.061Z,98492.48
2017-08-28T17:18:29.517Z,98484.84
2017-08-28T17:20:56.969Z,98491.19
2017-08-28T17:23:24.446Z,98495.31
2017-08-28T17:25:51.893Z,98493.45
2017-08-28T17:28:19.667Z,98493.32
2017-08-28T17:30:47.491Z,98492.88
2017-08-28T17:33:14.949Z,98501.85
2017-08-28T17:35:42.474Z,98500.09
2017-08-28T17:38:09.918Z,98497.80
2017-08-28T17:40:38.503Z,98490.00
2017-08-28T17:43:06.447Z,98490.97
2017-08-28T17:45:34.008Z,98491.28
2017-08-28T17:48:01.491Z,98496.36
2017-08-28T17:50:29.225Z,98502.52
2017-08-28T17:52:58.797Z,98505.20
2017-08-28T17:55:26.396Z,98505.85
2017-08-28T17:57:54.126Z,98505.78
2017-08-28T18:00:21.618Z,98510.47
2017-08-28T18:02:49.739Z,98517.08
2017-08-28T18:05:17.479Z,98508.39
2017-08-28T18:07:46.054Z,98506.06
2017-08-28T18:10:13.542Z,98511.96
2017-08-28T18:12:40.994Z,98515.41
2017-08-28T18:15:08.474Z,98520.44
2017-08-28T18:17:36.952Z,98522.58
2017-08-28T18:20:04.680Z,98515.97
2017-08-28T18:22:32.416Z,98522.02
2017-08-28T18:24:59.903Z,98526.72
2017-08-28T18:27:27.389Z,98530.49
2017-08-28T18:29:54.860Z,98530.81
2017-08-28T18:32:22.333Z,98534.25
2017-08-28T18:34:49.776Z,98536.19
2017-08-28T18:37:17.258Z,98539.86
2017-08-28T18:39:44.710Z,98545.09
2017-08-28T18:42:12.191Z,98548.84
2017-08-28T18:44:39.646Z,98552.22
2017-08-28T18:47:07.120Z,98550.94
2017-08-28T18:49:34.577Z,98558.83
2017-08-28T18:52:02.066Z,98558.05
2017-08-28T18:54:29.547Z,98564.83
2017-08-28T18:56:56.994Z,98563.27
2017-08-28T18:59:24.483Z,98570.36
2017-08-28T19:01:51.957Z,98575.37
2017-08-28T19:04:19.411Z,98582.81
2017-08-28T19:06:46.886Z,98591.27
2017-08-28T19:09:14.695Z,98587.39
2017-08-28T19:11:42.174Z,98592.26
2017-08-28T19:14:09.633Z,98597.94
2017-08-28T19:16:37.183Z,98604.39
2017-08-28T19:19:04.686Z,98605.67
2017-08-28T19:21:32.153Z,98603.12
2017-08-28T19:24:00.026Z,98606.03
2017-08-28T19:26:27.496Z,98611.19
2017-08-28T19:28:54.956Z,98609.20
2017-08-28T19:31:23.118Z,98609.02
2017-08-28T19:34:00.153Z,98605.80
2017-08-28T19:36:27.632Z,98617.28
2017-08-28T19:38:55.114Z,98615.94
2017-08-28T19:41:22.573Z,98617.16
2017-08-28T19:43:50.043Z,98617.98
2017-08-28T19:53:01.474Z,98616.00
2017-08-28T19:55:28.930Z,98616.61
2017-08-28T19:57:56.390Z,98620.29
2017-08-28T20:00:23.929Z,98617.92
2017-08-28T20:02:55.381Z,98616.96
2017-08-28T20:05:22.843Z,98619.50
2017-08-28T20:07:50.333Z,98618.73
2017-08-28T20:10:17.845Z,98626.65
2017-08-28T20:12:45.305Z,98634.36
2017-08-28T20:15:12.754Z,98630.02
2017-08-28T20:17:40.232Z,98633.11
2017-08-28T20:20:07.685Z,98638.19
2017-08-28T20:22:35.250Z,98630.56
2017-08-28T20:25:03.661Z,98636.80
2017-08-28T20:27:31.564Z,98635.98
2017-08-28T20:29:59.122Z,98633.89
2017-08-28T20:32:26.607Z,98636.84
2017-08-28T20:34:54.072Z,98640.16
2017-08-28T20:37:21.548Z,98637.32
2017-08-28T20:39:49.026Z,98643.63
2017-08-28T20:42:18.396Z,98638.23
2017-08-28T20:44:47.573Z,98642.84
2017-08-28T20:47:17.275Z,98641.23
2017-08-28T20:49:46.732Z,98638.80
2017-08-28T20:52:16.142Z,98636.75
2017-08-28T20:54:43.732Z,98641.66
2017-08-28T20:57:11.205Z,98633.66
2017-08-28T20:59:38.694Z,98638.06
2017-08-28T21:02:06.153Z,98637.80
2017-08-28T21:04:33.605Z,98645.08
2017-08-28T21:07:01.077Z,98639.69
2017-08-28T21:09:28.574Z,98643.53
2017-08-28T21:11:56.037Z,98643.05
2017-08-28T21:14:23.496Z,98643.50
2017-08-28T21:16:50.980Z,98647.83
2017-08-28T21:19:18.437Z,98645.58
2017-08-28T21:21:47.151Z,98644.67
2017-08-28T21:24:16.773Z,98644.77
2017-08-28T21:26:46.356Z,98652.83
2017-08-28T21:29:15.932Z,98651.63
2017-08-28T21:31:45.582Z,98649.58
2017-08-28T21:34:13.191Z,98649.33
2017-08-28T21:36:40.658Z,98654.55
2017-08-28T21:39:08.112Z,98652.39
2017-08-28T21:41:35.585Z,98658.97
2017-08-28T21:44:03.061Z,98659.80
2017-08-28T21:46:30.513Z,98663.75
2017-08-28T21:48:57.986Z,98654.24
2017-08-28T21:51:25.447Z,98652.17
2017-08-28T21:53:52.905Z,98650.62
2017-08-28T21:56:20.380Z,98650.64
2017-08-28T21:58:47.927Z,98648.22
2017-08-28T22:01:15.382Z,98651.27
2017-08-28T22:03:42.862Z,98647.27
2017-08-28T22:06:10.314Z,98648.13
2017-08-28T22:08:37.793Z,98642.67
2017-08-28T22:11:05.266Z,98648.05
2017-08-28T22:13:32.756Z,98642.94
2017-08-28T22:16:00.217Z,98644.63
2017-08-28T22:18:27.678Z,98641.31
2017-08-28T22:20:55.157Z,98644.58
2017-08-28T22:23:22.602Z,98643.84
2017-08-28T22:25:50.077Z,98643.42
2017-08-28T22:28:17.529Z,98646.55
2017-08-28T22:30:45.018Z,98654.67
2017-08-28T22:33:12.473Z,98654.72
2017-08-28T22:35:39.930Z,98655.65
2017-08-28T22:38:07.406Z,98653.98
2017-08-28T22:40:34.873Z,98652.42
2017-08-28T22:43:02.343Z,98649.41
2017-08-28T22:45:29.819Z,98655.06
2017-08-28T22:47:57.285Z,98647.05
2017-08-28T22:50:24.767Z,98644.86
2017-08-28T22:52:52.238Z,98650.28
2017-08-28T22:55:19.717Z,98645.61
2017-08-28T22:57:47.190Z,98647.62
2017-08-28T23:00:14.669Z,98651.13
2017-08-28T23:02:42.161Z,98656.56
2017-08-28T23:05:09.615Z,98656.40
2017-08-28T23:07:37.068Z,98653.15
2017-08-28T23:10:04.555Z,98650.98
2017-08-28T23:12:32.009Z,98644.19
2017-08-28T23:14:59.814Z,98650.34
2017-08-28T23:17:27.273Z,98656.35
2017-08-28T23:19:54.720Z,98655.59
2017-08-28T23:22:22.204Z,98659.64
2017-08-28T23:24:49.963Z,98651.19
2017-08-28T23:27:17.413Z,98658.51
2017-08-28T23:29:44.866Z,98655.59
2017-08-28T23:32:12.346Z,98655.84
2017-08-28T23:34:39.803Z,98657.38
2017-08-28T23:37:07.253Z,98661.52
2017-08-28T23:39:34.742Z,98660.44
2017-08-28T23:42:02.202Z,98664.13
2017-08-28T23:44:29.688Z,98661.09
2017-08-28T23:46:57.153Z,98667.66
2017-08-28T23:49:24.612Z,98668.25
2017-08-28T23:51:52.105Z,98668.84
2017-08-28T23:54:19.565Z,98674.37
2017-08-28T23:56:47.025Z,98676.83
2017-08-28T23:59:14.503Z,98681.84
